sensor_id;sensor_type;location;lat;lon;timestamp;pressure;altitude;pressure_sealevel;temperature
74060;BMP280;62414;53.436;8.828;2022-09-13T00:02:10;100874.28;;;16.93
74060;BMP280;62414;53.436;8.828;2022-09-13T00:04:35;100867.00;;;16.90
74060;BMP280;62414;53.436;8.828;2022-09-13T00:07:01;100867.56;;;16.79
74060;BMP280;62414;53.436;8.828;2022-09-13T00:09:27;100861.84;;;16.77
74060;BMP280;62414;53.436;8.828;2022-09-13T00:11:53;100854.09;;;16.75
74060;BMP280;62414;53.436;8.828;2022-09-13T00:14:18;100851.84;;;16.74
74060;BMP280;62414;53.436;8.828;2022-09-13T00:16:44;100846.84;;;16.72
74060;BMP280;62414;53.436;8.828;2022-09-13T00:19:09;100846.94;;;16.63
74060;BMP280;62414;53.436;8.828;2022-09-13T00:21:35;100857.59;;;16.61
74060;BMP280;62414;53.436;8.828;2022-09-13T00:24:00;100859.03;;;16.57
74060;BMP280;62414;53.436;8.828;2022-09-13T00:26:27;100851.47;;;16.52
74060;BMP280;62414;53.436;8.828;2022-09-13T00:28:54;100854.50;;;16.54
74060;BMP280;62414;53.436;8.828;2022-09-13T00:31:21;100857.22;;;16.54
74060;BMP280;62414;53.436;8.828;2022-09-13T00:33:47;100855.53;;;16.56
74060;BMP280;62414;53.436;8.828;2022-09-13T00:36:12;100849.56;;;16.58
74060;BMP280;62414;53.436;8.828;2022-09-13T00:38:38;100839.59;;;16.55
74060;BMP280;62414;53.436;8.828;2022-09-13T00:41:06;100838.84;;;16.54
74060;BMP280;62414;53.436;8.828;2022-09-13T00:43:45;100834.59;;;16.53
74060;BMP280;62414;53.436;8.828;2022-09-13T00:46:20;100833.81;;;16.53
74060;BMP280;62414;53.436;8.828;2022-09-13T00:48:48;100831.41;;;16.55
74060;BMP280;62414;53.436;8.828;2022-09-13T00:51:15;100823.41;;;16.51
74060;BMP280;62414;53.436;8.828;2022-09-13T00:53:42;100810.97;;;16.50
74060;BMP280;62414;53.436;8.828;2022-09-13T00:56:12;100807.09;;;16.57
74060;BMP280;62414;53.436;8.828;2022-09-13T00:58:45;100804.16;;;16.60
74060;BMP280;62414;53.436;8.828;2022-09-13T01:01:14;100793.50;;;16.62
74060;BMP280;62414;53.436;8.828;2022-09-13T01:03:42;100794.47;;;16.59
74060;BMP280;62414;53.436;8.828;2022-09-13T01:06:10;100797.19;;;16.59
74060;BMP280;62414;53.436;8.828;2022-09-13T01:08:39;100801.44;;;16.60
74060;BMP280;62414;53.436;8.828;2022-09-13T01:11:09;100787.22;;;16.56
74060;BMP280;62414;53.436;8.828;2022-09-13T01:13:35;100781.19;;;16.52
74060;BMP280;62414;53.436;8.828;2022-09-13T01:16:02;100775.63;;;16.47
74060;BMP280;62414;53.436;8.828;2022-09-13T01:18:27;100775.13;;;16.48
74060;BMP280;62414;53.436;8.828;2022-09-13T01:21:18;100776.84;;;16.45
74060;BMP280;62414;53.436;8.828;2022-09-13T01:24:14;100764.19;;;16.48
74060;BMP280;62414;53.436;8.828;2022-09-13T01:27:10;100775.88;;;16.49
74060;BMP280;62414;53.436;8.828;2022-09-13T01:32:46;100774.56;;;16.44
74060;BMP280;62414;53.436;8.828;2022-09-13T01:35:19;100769.09;;;16.44
74060;BMP280;62414;53.436;8.828;2022-09-13T01:37:53;100768.34;;;16.43
74060;BMP280;62414;53.436;8.828;2022-09-13T01:40:33;100763.63;;;16.44
74060;BMP280;62414;53.436;8.828;2022-09-13T01:43:10;100760.16;;;16.43
74060;BMP280;62414;53.436;8.828;2022-09-13T01:45:42;100749.69;;;16.42
74060;BMP280;62414;53.436;8.828;2022-09-13T01:48:18;100751.03;;;16.47
74060;BMP280;62414;53.436;8.828;2022-09-13T01:50:47;100753.03;;;16.46
74060;BMP280;62414;53.436;8.828;2022-09-13T01:53:22;100755.75;;;16.46
74060;BMP280;62414;53.436;8.828;2022-09-13T01:55:52;100748.78;;;16.45
74060;BMP280;62414;53.436;8.828;2022-09-13T01:58:25;100752.81;;;16.50
74060;BMP280;62414;53.436;8.828;2022-09-13T02:00:54;100743.31;;;16.45
74060;BMP280;62414;53.436;8.828;2022-09-13T02:03:25;100742.25;;;16.42
74060;BMP280;62414;53.436;8.828;2022-09-13T02:05:54;100731.31;;;16.42
74060;BMP280;62414;53.436;8.828;2022-09-13T02:08:24;100736.63;;;16.46
74060;BMP280;62414;53.436;8.828;2022-09-13T02:10:55;100738.59;;;16.45
74060;BMP280;62414;53.436;8.828;2022-09-13T02:13:26;100739.06;;;16.44
74060;BMP280;62414;53.436;8.828;2022-09-13T02:15:57;100747.56;;;16.46
74060;BMP280;62414;53.436;8.828;2022-09-13T02:18:30;100741.78;;;16.44
74060;BMP280;62414;53.436;8.828;2022-09-13T02:21:00;100743.50;;;16.41
74060;BMP280;62414;53.436;8.828;2022-09-13T02:23:32;100737.53;;;16.43
74060;BMP280;62414;53.436;8.828;2022-09-13T02:25:59;100741.78;;;16.44
74060;BMP280;62414;53.436;8.828;2022-09-13T02:28:31;100729.66;;;16.45
74060;BMP280;62414;53.436;8.828;2022-09-13T02:30:58;100725.19;;;16.48
74060;BMP280;62414;53.436;8.828;2022-09-13T02:33:29;100718.81;;;16.51
74060;BMP280;62414;53.436;8.828;2022-09-13T02:35:59;100707.56;;;16.49
74060;BMP280;62414;53.436;8.828;2022-09-13T02:38:30;100711.53;;;16.48
74060;BMP280;62414;53.436;8.828;2022-09-13T02:40:58;100712.03;;;16.46
74060;BMP280;62414;53.436;8.828;2022-09-13T02:43:27;100713.69;;;16.43
74060;BMP280;62414;53.436;8.828;2022-09-13T02:46:11;100706.06;;;16.48
74060;BMP280;62414;53.436;8.828;2022-09-13T02:48:48;100704.84;;;16.49
74060;BMP280;62414;53.436;8.828;2022-09-13T02:51:17;100694.69;;;16.49
74060;BMP280;62414;53.436;8.828;2022-09-13T02:53:50;100705.81;;;16.45
74060;BMP280;62414;53.436;8.828;2022-09-13T02:56:22;100710.22;;;16.43
74060;BMP280;62414;53.436;8.828;2022-09-13T02:58:52;100704.31;;;16.44
74060;BMP280;62414;53.436;8.828;2022-09-13T03:01:18;100704.75;;;16.43
74060;BMP280;62414;53.436;8.828;2022-09-13T03:03:45;100695.06;;;16.42
74060;BMP280;62414;53.436;8.828;2022-09-13T03:06:11;100696.00;;;16.39
74060;BMP280;62414;53.436;8.828;2022-09-13T03:08:36;100697.44;;;16.34
74060;BMP280;62414;53.436;8.828;2022-09-13T03:11:10;100685.53;;;16.37
74060;BMP280;62414;53.436;8.828;2022-09-13T03:16:51;100686.13;;;16.41
74060;BMP280;62414;53.436;8.828;2022-09-13T03:19:32;100681.38;;;16.42
74060;BMP280;62414;53.436;8.828;2022-09-13T03:22:16;100682.66;;;16.41
74060;BMP280;62414;53.436;8.828;2022-09-13T03:24:49;100683.31;;;16.36
74060;BMP280;62414;53.436;8.828;2022-09-13T03:27:18;100682.25;;;16.33
74060;BMP280;62414;53.436;8.828;2022-09-13T03:29:53;100685.66;;;16.28
74060;BMP280;62414;53.436;8.828;2022-09-13T03:32:25;100691.59;;;16.27
74060;BMP280;62414;53.436;8.828;2022-09-13T03:35:03;100689.81;;;16.24
74060;BMP280;62414;53.436;8.828;2022-09-13T03:37:33;100699.44;;;16.19
74060;BMP280;62414;53.436;8.828;2022-09-13T03:40:04;100701.13;;;16.17
74060;BMP280;62414;53.436;8.828;2022-09-13T03:42:34;100692.94;;;16.17
74060;BMP280;62414;53.436;8.828;2022-09-13T03:45:03;100691.91;;;16.14
74060;BMP280;62414;53.436;8.828;2022-09-13T03:47:31;100645.47;;;16.14
74060;BMP280;62414;53.436;8.828;2022-09-13T03:49:59;100641.78;;;16.17
74060;BMP280;62414;53.436;8.828;2022-09-13T03:52:25;100644.06;;;16.19
74060;BMP280;62414;53.436;8.828;2022-09-13T03:54:51;100645.16;;;16.27
74060;BMP280;62414;53.436;8.828;2022-09-13T03:57:18;100651.09;;;16.25
74060;BMP280;62414;53.436;8.828;2022-09-13T03:59:46;100643.94;;;16.28
74060;BMP280;62414;53.436;8.828;2022-09-13T04:02:12;100656.16;;;16.32
74060;BMP280;62414;53.436;8.828;2022-09-13T04:04:38;100657.22;;;16.35
74060;BMP280;62414;53.436;8.828;2022-09-13T04:07:05;100655.50;;;16.37
74060;BMP280;62414;53.436;8.828;2022-09-13T04:09:31;100660.97;;;16.37
74060;BMP280;62414;53.436;8.828;2022-09-13T04:11:56;100658.72;;;16.36
74060;BMP280;62414;53.436;8.828;2022-09-13T04:14:22;100656.78;;;16.42
74060;BMP280;62414;53.436;8.828;2022-09-13T04:16:47;100654.81;;;16.42
74060;BMP280;62414;53.436;8.828;2022-09-13T04:19:13;100660.78;;;16.41
74060;BMP280;62414;53.436;8.828;2022-09-13T04:21:38;100661.72;;;16.38
74060;BMP280;62414;53.436;8.828;2022-09-13T04:24:05;100659.97;;;16.35
74060;BMP280;62414;53.436;8.828;2022-09-13T04:26:31;100651.53;;;16.38
74060;BMP280;62414;53.436;8.828;2022-09-13T04:28:56;100658.31;;;16.43
74060;BMP280;62414;53.436;8.828;2022-09-13T04:31:21;100663.09;;;16.48
74060;BMP280;62414;53.436;8.828;2022-09-13T04:33:48;100662.66;;;16.50
74060;BMP280;62414;53.436;8.828;2022-09-13T04:36:14;100661.59;;;16.47
74060;BMP280;62414;53.436;8.828;2022-09-13T04:38:39;100660.66;;;16.50
74060;BMP280;62414;53.436;8.828;2022-09-13T04:41:06;100656.44;;;16.49
74060;BMP280;62414;53.436;8.828;2022-09-13T04:43:31;100648.22;;;16.49
74060;BMP280;62414;53.436;8.828;2022-09-13T04:45:58;100656.94;;;16.53
74060;BMP280;62414;53.436;8.828;2022-09-13T04:48:24;100663.69;;;16.52
74060;BMP280;62414;53.436;8.828;2022-09-13T04:50:49;100662.91;;;16.52
74060;BMP280;62414;53.436;8.828;2022-09-13T04:53:15;100661.66;;;16.53
74060;BMP280;62414;53.436;8.828;2022-09-13T04:55:40;100660.75;;;16.56
74060;BMP280;62414;53.436;8.828;2022-09-13T04:58:07;100671.91;;;16.58
74060;BMP280;62414;53.436;8.828;2022-09-13T05:00:32;100674.47;;;16.61
74060;BMP280;62414;53.436;8.828;2022-09-13T05:02:58;100669.00;;;16.61
74060;BMP280;62414;53.436;8.828;2022-09-13T05:05:24;100671.53;;;16.65
74060;BMP280;62414;53.436;8.828;2022-09-13T05:07:49;100664.56;;;16.64
74060;BMP280;62414;53.436;8.828;2022-09-13T05:10:15;100670.31;;;16.66
74060;BMP280;62414;53.436;8.828;2022-09-13T05:12:40;100679.53;;;16.68
74060;BMP280;62414;53.436;8.828;2022-09-13T05:15:08;100667.88;;;16.68
74060;BMP280;62414;53.436;8.828;2022-09-13T05:17:34;100669.09;;;16.67
74060;BMP280;62414;53.436;8.828;2022-09-13T05:19:59;100656.44;;;16.69
74060;BMP280;62414;53.436;8.828;2022-09-13T05:22:25;100662.66;;;16.70
74060;BMP280;62414;53.436;8.828;2022-09-13T05:24:50;100660.69;;;16.70
74060;BMP280;62414;53.436;8.828;2022-09-13T05:27:15;100657.94;;;16.70
74060;BMP280;62414;53.436;8.828;2022-09-13T05:29:41;100657.94;;;16.70
74060;BMP280;62414;53.436;8.828;2022-09-13T05:32:08;100648.31;;;16.75
74060;BMP280;62414;53.436;8.828;2022-09-13T05:34:33;100637.94;;;16.79
74060;BMP280;62414;53.436;8.828;2022-09-13T05:36:58;100638.69;;;16.80
74060;BMP280;62414;53.436;8.828;2022-09-13T05:39:24;100647.09;;;16.76
74060;BMP280;62414;53.436;8.828;2022-09-13T05:41:49;100647.09;;;16.76
74060;BMP280;62414;53.436;8.828;2022-09-13T05:44:15;100647.94;;;16.82
74060;BMP280;62414;53.436;8.828;2022-09-13T05:46:41;100645.44;;;16.84
74060;BMP280;62414;53.436;8.828;2022-09-13T05:49:08;100656.44;;;16.90
74060;BMP280;62414;53.436;8.828;2022-09-13T05:51:33;100656.75;;;16.92
74060;BMP280;62414;53.436;8.828;2022-09-13T05:53:59;100654.84;;;16.98
74060;BMP280;62414;53.436;8.828;2022-09-13T05:56:26;100647.63;;;17.00
74060;BMP280;62414;53.436;8.828;2022-09-13T05:58:52;100650.19;;;17.04
74060;BMP280;62414;53.436;8.828;2022-09-13T06:01:19;100654.69;;;17.07
74060;BMP280;62414;53.436;8.828;2022-09-13T06:03:46;100654.75;;;17.13
74060;BMP280;62414;53.436;8.828;2022-09-13T06:06:13;100647.84;;;17.17
74060;BMP280;62414;53.436;8.828;2022-09-13T06:08:38;100654.13;;;17.23
74060;BMP280;62414;53.436;8.828;2022-09-13T06:11:05;100660.44;;;17.29
74060;BMP280;62414;53.436;8.828;2022-09-13T06:13:32;100666.91;;;17.32
74060;BMP280;62414;53.436;8.828;2022-09-13T06:15:59;100674.63;;;17.33
74060;BMP280;62414;53.436;8.828;2022-09-13T06:18:25;100683.56;;;17.34
74060;BMP280;62414;53.436;8.828;2022-09-13T06:20:56;100687.56;;;17.33
74060;BMP280;62414;53.436;8.828;2022-09-13T06:23:23;100690.28;;;17.33
74060;BMP280;62414;53.436;8.828;2022-09-13T06:25:49;100693.88;;;17.39
74060;BMP280;62414;53.436;8.828;2022-09-13T06:28:14;100701.28;;;17.38
74060;BMP280;62414;53.436;8.828;2022-09-13T06:30:39;100689.38;;;17.41
74060;BMP280;62414;53.436;8.828;2022-09-13T06:33:05;100698.41;;;17.48
74060;BMP280;62414;53.436;8.828;2022-09-13T06:35:30;100695.06;;;17.58
74060;BMP280;62414;53.436;8.828;2022-09-13T06:37:56;100704.47;;;17.57
74060;BMP280;62414;53.436;8.828;2022-09-13T06:40:23;100700.53;;;17.58
74060;BMP280;62414;53.436;8.828;2022-09-13T06:42:49;100707.03;;;17.66
74060;BMP280;62414;53.436;8.828;2022-09-13T06:45:15;100700.66;;;17.75
74060;BMP280;62414;53.436;8.828;2022-09-13T06:47:40;100705.34;;;17.69
74060;BMP280;62414;53.436;8.828;2022-09-13T06:50:06;100703.69;;;17.77
74060;BMP280;62414;53.436;8.828;2022-09-13T06:52:31;100695.75;;;17.85
74060;BMP280;62414;53.436;8.828;2022-09-13T06:54:57;100700.19;;;17.77
74060;BMP280;62414;53.436;8.828;2022-09-13T06:57:24;100693.69;;;17.74
74060;BMP280;62414;53.436;8.828;2022-09-13T06:59:49;100710.25;;;17.65
74060;BMP280;62414;53.436;8.828;2022-09-13T07:02:14;100693.78;;;17.59
74060;BMP280;62414;53.436;8.828;2022-09-13T07:04:40;100676.81;;;17.55
74060;BMP280;62414;53.436;8.828;2022-09-13T07:07:05;100676.28;;;17.51
74060;BMP280;62414;53.436;8.828;2022-09-13T07:09:31;100684.22;;;17.44
74060;BMP280;62414;53.436;8.828;2022-09-13T07:11:56;100712.19;;;17.33
74060;BMP280;62414;53.436;8.828;2022-09-13T07:14:24;100706.97;;;17.35
74060;BMP280;62414;53.436;8.828;2022-09-13T07:16:50;100711.47;;;17.38
74060;BMP280;62414;53.436;8.828;2022-09-13T07:19:17;100722.22;;;17.41
74060;BMP280;62414;53.436;8.828;2022-09-13T07:21:43;100732.41;;;17.41
74060;BMP280;62414;53.436;8.828;2022-09-13T07:24:09;100739.13;;;17.40
74060;BMP280;62414;53.436;8.828;2022-09-13T07:26:35;100737.13;;;17.40
74060;BMP280;62414;53.436;8.828;2022-09-13T07:29:04;100733.38;;;17.58
74060;BMP280;62414;53.436;8.828;2022-09-13T07:31:33;100739.00;;;17.75
74060;BMP280;62414;53.436;8.828;2022-09-13T07:33:59;100742.91;;;17.94
74060;BMP280;62414;53.436;8.828;2022-09-13T07:36:26;100755.97;;;18.05
74060;BMP280;62414;53.436;8.828;2022-09-13T07:38:52;100763.03;;;18.17
74060;BMP280;62414;53.436;8.828;2022-09-13T07:41:19;100767.34;;;18.24
74060;BMP280;62414;53.436;8.828;2022-09-13T07:43:45;100775.31;;;18.22
74060;BMP280;62414;53.436;8.828;2022-09-13T07:46:13;100773.44;;;18.13
74060;BMP280;62414;53.436;8.828;2022-09-13T07:48:41;100775.03;;;18.20
74060;BMP280;62414;53.436;8.828;2022-09-13T07:51:09;100774.06;;;18.28
74060;BMP280;62414;53.436;8.828;2022-09-13T07:53:35;100776.41;;;18.41
74060;BMP280;62414;53.436;8.828;2022-09-13T07:56:03;100771.03;;;18.52
74060;BMP280;62414;53.436;8.828;2022-09-13T07:58:29;100770.78;;;18.56
74060;BMP280;62414;53.436;8.828;2022-09-13T08:00:59;100773.34;;;18.65
74060;BMP280;62414;53.436;8.828;2022-09-13T08:03:28;100782.84;;;18.69
74060;BMP280;62414;53.436;8.828;2022-09-13T08:05:55;100776.66;;;18.69
74060;BMP280;62414;53.436;8.828;2022-09-13T08:08:20;100783.56;;;18.59
74060;BMP280;62414;53.436;8.828;2022-09-13T08:10:45;100791.56;;;18.62
74060;BMP280;62414;53.436;8.828;2022-09-13T08:13:11;100792.53;;;18.65
74060;BMP280;62414;53.436;8.828;2022-09-13T08:15:36;100796.75;;;18.55
74060;BMP280;62414;53.436;8.828;2022-09-13T08:18:04;100791.44;;;18.51
74060;BMP280;62414;53.436;8.828;2022-09-13T08:20:29;100800.19;;;18.50
74060;BMP280;62414;53.436;8.828;2022-09-13T08:22:56;100799.28;;;18.32
74060;BMP280;62414;53.436;8.828;2022-09-13T08:25:21;100797.78;;;18.31
74060;BMP280;62414;53.436;8.828;2022-09-13T08:27:47;100810.34;;;18.12
74060;BMP280;62414;53.436;8.828;2022-09-13T08:30:12;100802.47;;;17.99
74060;BMP280;62414;53.436;8.828;2022-09-13T08:32:38;100808.41;;;17.92
74060;BMP280;62414;53.436;8.828;2022-09-13T08:35:04;100807.59;;;17.86
74060;BMP280;62414;53.436;8.828;2022-09-13T08:37:30;100813.38;;;17.94
74060;BMP280;62414;53.436;8.828;2022-09-13T08:39:57;100820.84;;;17.93
74060;BMP280;62414;53.436;8.828;2022-09-13T08:42:30;100812.50;;;18.08
74060;BMP280;62414;53.436;8.828;2022-09-13T08:44:58;100811.53;;;18.37
74060;BMP280;62414;53.436;8.828;2022-09-13T08:47:30;100809.66;;;18.49
74060;BMP280;62414;53.436;8.828;2022-09-13T08:50:00;100811.28;;;18.66
74060;BMP280;62414;53.436;8.828;2022-09-13T08:52:29;100810.28;;;18.69
74060;BMP280;62414;53.436;8.828;2022-09-13T08:55:20;100819.53;;;18.72
74060;BMP280;62414;53.436;8.828;2022-09-13T08:57:52;100810.59;;;18.77
74060;BMP280;62414;53.436;8.828;2022-09-13T09:00:20;100813.94;;;18.98
74060;BMP280;62414;53.436;8.828;2022-09-13T09:03:01;100821.97;;;19.07
74060;BMP280;62414;53.436;8.828;2022-09-13T09:05:30;100816.47;;;18.96
74060;BMP280;62414;53.436;8.828;2022-09-13T09:07:59;100826.44;;;18.62
74060;BMP280;62414;53.436;8.828;2022-09-13T09:10:28;100822.47;;;18.63
74060;BMP280;62414;53.436;8.828;2022-09-13T09:12:56;100820.56;;;18.80
74060;BMP280;62414;53.436;8.828;2022-09-13T09:15:25;100824.50;;;19.05
74060;BMP280;62414;53.436;8.828;2022-09-13T09:17:55;100831.06;;;19.24
74060;BMP280;62414;53.436;8.828;2022-09-13T09:20:27;100829.88;;;19.36
74060;BMP280;62414;53.436;8.828;2022-09-13T09:22:54;100818.00;;;19.67
74060;BMP280;62414;53.436;8.828;2022-09-13T09:25:21;100826.03;;;19.93
74060;BMP280;62414;53.436;8.828;2022-09-13T09:27:48;100827.22;;;19.70
74060;BMP280;62414;53.436;8.828;2022-09-13T09:30:14;100833.91;;;19.52
74060;BMP280;62414;53.436;8.828;2022-09-13T09:32:48;100827.72;;;19.74
74060;BMP280;62414;53.436;8.828;2022-09-13T09:35:20;100823.25;;;19.88
74060;BMP280;62414;53.436;8.828;2022-09-13T09:38:03;100830.78;;;19.98
74060;BMP280;62414;53.436;8.828;2022-09-13T09:40:31;100821.28;;;19.94
74060;BMP280;62414;53.436;8.828;2022-09-13T09:43:00;100823.06;;;20.19
74060;BMP280;62414;53.436;8.828;2022-09-13T09:45:27;100824.81;;;20.22
74060;BMP280;62414;53.436;8.828;2022-09-13T09:47:55;100826.81;;;20.33
74060;BMP280;62414;53.436;8.828;2022-09-13T09:50:23;100818.06;;;20.51
74060;BMP280;62414;53.436;8.828;2022-09-13T09:52:54;100818.81;;;20.52
74060;BMP280;62414;53.436;8.828;2022-09-13T09:55:26;100821.81;;;20.20
74060;BMP280;62414;53.436;8.828;2022-09-13T09:57:54;100823.78;;;20.25
74060;BMP280;62414;53.436;8.828;2022-09-13T10:00:23;100810.28;;;20.50
74060;BMP280;62414;53.436;8.828;2022-09-13T10:02:52;100818.03;;;20.57
74060;BMP280;62414;53.436;8.828;2022-09-13T10:05:18;100818.31;;;20.37
74060;BMP280;62414;53.436;8.828;2022-09-13T10:07:51;100819.31;;;19.94
74060;BMP280;62414;53.436;8.828;2022-09-13T10:10:20;100823.72;;;19.58
74060;BMP280;62414;53.436;8.828;2022-09-13T10:12:49;100819.72;;;19.65
74060;BMP280;62414;53.436;8.828;2022-09-13T10:15:17;100819.78;;;19.93
74060;BMP280;62414;53.436;8.828;2022-09-13T10:18:00;100810.06;;;20.31
74060;BMP280;62414;53.436;8.828;2022-09-13T10:20:25;100816.50;;;20.78
74060;BMP280;62414;53.436;8.828;2022-09-13T10:23:24;100807.06;;;21.26
74060;BMP280;62414;53.436;8.828;2022-09-13T10:26:08;100816.41;;;21.00
74060;BMP280;62414;53.436;8.828;2022-09-13T10:28:40;100821.31;;;20.39
74060;BMP280;62414;53.436;8.828;2022-09-13T10:31:09;100816.81;;;20.35
74060;BMP280;62414;53.436;8.828;2022-09-13T10:33:38;100824.78;;;20.17
74060;BMP280;62414;53.436;8.828;2022-09-13T10:36:06;100824.81;;;20.45
74060;BMP280;62414;53.436;8.828;2022-09-13T10:38:37;100818.19;;;20.92
74060;BMP280;62414;53.436;8.828;2022-09-13T10:41:05;100806.91;;;21.13
74060;BMP280;62414;53.436;8.828;2022-09-13T10:43:32;100821.22;;;20.89
74060;BMP280;62414;53.436;8.828;2022-09-13T10:45:58;100815.50;;;20.59
74060;BMP280;62414;53.436;8.828;2022-09-13T10:48:28;100821.81;;;20.20
74060;BMP280;62414;53.436;8.828;2022-09-13T10:51:04;100814.72;;;19.69
74060;BMP280;62414;53.436;8.828;2022-09-13T10:53:36;100815.91;;;19.40
74060;BMP280;62414;53.436;8.828;2022-09-13T10:56:03;100806.19;;;19.56
74060;BMP280;62414;53.436;8.828;2022-09-13T10:58:28;100808.31;;;20.00
74060;BMP280;62414;53.436;8.828;2022-09-13T11:01:12;100805.53;;;20.50
74060;BMP280;62414;53.436;8.828;2022-09-13T11:03:56;100800.47;;;20.82
74060;BMP280;62414;53.436;8.828;2022-09-13T11:06:29;100801.16;;;21.05
74060;BMP280;62414;53.436;8.828;2022-09-13T11:09:06;100801.00;;;20.69
74060;BMP280;62414;53.436;8.828;2022-09-13T11:11:36;100810.56;;;20.35
74060;BMP280;62414;53.436;8.828;2022-09-13T11:14:16;100810.06;;;20.20
74060;BMP280;62414;53.436;8.828;2022-09-13T11:16:53;100810.03;;;19.97
74060;BMP280;62414;53.436;8.828;2022-09-13T11:19:38;100825.31;;;20.49
74060;BMP280;62414;53.436;8.828;2022-09-13T11:22:20;100809.94;;;21.03
74060;BMP280;62414;53.436;8.828;2022-09-13T11:25:04;100814.47;;;21.48
74060;BMP280;62414;53.436;8.828;2022-09-13T11:27:38;100802.97;;;21.85
74060;BMP280;62414;53.436;8.828;2022-09-13T11:30:12;100798.56;;;22.00
74060;BMP280;62414;53.436;8.828;2022-09-13T11:32:48;100804.09;;;22.55
74060;BMP280;62414;53.436;8.828;2022-09-13T11:35:27;100805.75;;;23.25
74060;BMP280;62414;53.436;8.828;2022-09-13T11:38:00;100796.66;;;23.12
74060;BMP280;62414;53.436;8.828;2022-09-13T11:40:35;100794.47;;;23.23
74060;BMP280;62414;53.436;8.828;2022-09-13T11:43:17;100795.66;;;23.28
74060;BMP280;62414;53.436;8.828;2022-09-13T11:45:51;100798.13;;;23.13
74060;BMP280;62414;53.436;8.828;2022-09-13T11:48:29;100795.09;;;22.49
74060;BMP280;62414;53.436;8.828;2022-09-13T11:51:03;100794.94;;;22.41
74060;BMP280;62414;53.436;8.828;2022-09-13T11:53:41;100806.94;;;22.19
74060;BMP280;62414;53.436;8.828;2022-09-13T11:56:09;100801.34;;;23.17
74060;BMP280;62414;53.436;8.828;2022-09-13T11:58:44;100792.53;;;23.18
74060;BMP280;62414;53.436;8.828;2022-09-13T12:01:16;100810.06;;;23.21
74060;BMP280;62414;53.436;8.828;2022-09-13T12:03:48;100804.38;;;23.51
74060;BMP280;62414;53.436;8.828;2022-09-13T12:06:18;100799.03;;;23.02
74060;BMP280;62414;53.436;8.828;2022-09-13T12:08:48;100804.38;;;22.27
74060;BMP280;62414;53.436;8.828;2022-09-13T12:11:16;100811.63;;;21.64
74060;BMP280;62414;53.436;8.828;2022-09-13T12:13:46;100816.34;;;21.28
74060;BMP280;62414;53.436;8.828;2022-09-13T12:16:17;100814.84;;;21.68
74060;BMP280;62414;53.436;8.828;2022-09-13T12:18:46;100804.84;;;22.55
74060;BMP280;62414;53.436;8.828;2022-09-13T12:21:15;100809.84;;;22.32
74060;BMP280;62414;53.436;8.828;2022-09-13T12:23:49;100810.75;;;22.11
74060;BMP280;62414;53.436;8.828;2022-09-13T12:26:20;100809.63;;;22.25
74060;BMP280;62414;53.436;8.828;2022-09-13T12:28:49;100802.50;;;22.11
74060;BMP280;62414;53.436;8.828;2022-09-13T12:31:18;100796.88;;;21.92
74060;BMP280;62414;53.436;8.828;2022-09-13T12:33:45;100804.28;;;22.08
74060;BMP280;62414;53.436;8.828;2022-09-13T12:36:45;100803.72;;;22.64
74060;BMP280;62414;53.436;8.828;2022-09-13T12:39:41;100807.31;;;23.39
74060;BMP280;62414;53.436;8.828;2022-09-13T12:42:29;100812.19;;;23.65
74060;BMP280;62414;53.436;8.828;2022-09-13T12:45:12;100806.41;;;23.13
74060;BMP280;62414;53.436;8.828;2022-09-13T12:47:51;100814.78;;;23.07
74060;BMP280;62414;53.436;8.828;2022-09-13T12:50:36;100823.09;;;24.35
74060;BMP280;62414;53.436;8.828;2022-09-13T12:53:18;100814.56;;;25.19
74060;BMP280;62414;53.436;8.828;2022-09-13T12:56:20;100823.59;;;24.73
74060;BMP280;62414;53.436;8.828;2022-09-13T12:59:08;100813.09;;;24.45
74060;BMP280;62414;53.436;8.828;2022-09-13T13:01:43;100829.25;;;24.41
74060;BMP280;62414;53.436;8.828;2022-09-13T13:04:14;100812.59;;;23.88
74060;BMP280;62414;53.436;8.828;2022-09-13T13:06:47;100807.00;;;23.24
74060;BMP280;62414;53.436;8.828;2022-09-13T13:09:21;100816.75;;;22.69
74060;BMP280;62414;53.436;8.828;2022-09-13T13:11:49;100815.19;;;22.49
74060;BMP280;62414;53.436;8.828;2022-09-13T13:14:42;100819.09;;;23.21
74060;BMP280;62414;53.436;8.828;2022-09-13T13:17:34;100811.03;;;24.19
74060;BMP280;62414;53.436;8.828;2022-09-13T13:19:59;100807.50;;;23.60
74060;BMP280;62414;53.436;8.828;2022-09-13T13:22:48;100823.94;;;23.53
74060;BMP280;62414;53.436;8.828;2022-09-13T13:25:31;100832.09;;;23.64
74060;BMP280;62414;53.436;8.828;2022-09-13T13:27:58;100831.41;;;23.01
74060;BMP280;62414;53.436;8.828;2022-09-13T13:30:50;100832.38;;;23.04
74060;BMP280;62414;53.436;8.828;2022-09-13T13:33:19;100837.25;;;24.44
74060;BMP280;62414;53.436;8.828;2022-09-13T13:35:45;100825.69;;;25.06
74060;BMP280;62414;53.436;8.828;2022-09-13T13:38:35;100824.91;;;24.32
74060;BMP280;62414;53.436;8.828;2022-09-13T13:41:06;100829.38;;;25.22
74060;BMP280;62414;53.436;8.828;2022-09-13T13:43:34;100819.28;;;26.51
74060;BMP280;62414;53.436;8.828;2022-09-13T13:46:23;100833.81;;;27.39
74060;BMP280;62414;53.436;8.828;2022-09-13T13:48:49;100824.09;;;28.71
74060;BMP280;62414;53.436;8.828;2022-09-13T13:51:22;100820.75;;;28.33
74060;BMP280;62414;53.436;8.828;2022-09-13T13:54:01;100835.44;;;27.04
74060;BMP280;62414;53.436;8.828;2022-09-13T13:56:32;100829.00;;;27.39
74060;BMP280;62414;53.436;8.828;2022-09-13T13:59:03;100820.56;;;28.71
74060;BMP280;62414;53.436;8.828;2022-09-13T14:01:32;100813.91;;;28.66
74060;BMP280;62414;53.436;8.828;2022-09-13T14:07:01;100824.69;;;28.14
74060;BMP280;62414;53.436;8.828;2022-09-13T14:09:36;100836.81;;;27.71
74060;BMP280;62414;53.436;8.828;2022-09-13T14:12:19;100828.25;;;27.31
74060;BMP280;62414;53.436;8.828;2022-09-13T14:15:15;100819.78;;;28.38
74060;BMP280;62414;53.436;8.828;2022-09-13T14:18:01;100813.44;;;27.36
74060;BMP280;62414;53.436;8.828;2022-09-13T14:20:33;100820.16;;;25.40
74060;BMP280;62414;53.436;8.828;2022-09-13T14:23:15;100821.63;;;25.07
74060;BMP280;62414;53.436;8.828;2022-09-13T14:25:41;100813.19;;;23.81